Mears, Virginia
Current Conditions -  °F | °C
As of 8:54 PM on Friday 28 Nov 2014 (Local Time) from KWAL Reporting Station
Clear Clear  
Wind Chill: 29°   Ceiling: Unl
Heat Index: 29°   Visibility: 10mi
Dew Point: 22°   Wind: 3mph
Humidity: 75%   Direction: 340°NNW
Pressure: 30.32"   Gusts: NA
Location:  37.86°N, 75.62°W
Report Text: KWAL 290154Z AUTO 34003KT 10SM CLR M02/M06 A3032 RMK AO2 SLP262 T10171056
Loading
Personal Weather Stations






























Interactive Weather Map New forecast layout! Learn more

10-Day Weather Forecast

Advertisements
Track Severe Weather on mobile